Time;durP1;ratioP1;P1;durP2;ratioP2;P2;SDS_P1;SDS_P2;PMS_P1;PMS_P2;Temp;Humidity;BMP_temperature;BMP_pressure;BME280_temperature;BME280_humidity;BME280_pressure;Samples;Min_cycle;Max_cycle;Signal;HPM_P1;HPM_P2
2023/12/20 00:01:21;;;;;;;4.38;2.58;;;;;;;16.09;61.91;101311.16;10539687;28;20302;-50
2023/12/20 00:06:22;;;;;;;5.18;2.65;;;;;;;16.05;61.71;101310.09;10539212;28;20748;-48
2023/12/20 00:11:22;;;;;;;6.90;2.80;;;;;;;16.04;61.10;101313.84;10539419;28;20076;-51
2023/12/20 00:16:22;;;;;;;6.03;3.07;;;;;;;16.03;60.89;101309.56;10538958;28;20036;-48
2023/12/20 00:21:23;;;;;;;5.37;2.73;;;;;;;16.01;61.63;101311.69;10538961;28;20268;-49
2023/12/20 00:26:24;;;;;;;4.20;2.63;;;;;;;16.00;61.86;101310.91;10538316;28;20270;-47
2023/12/20 00:31:24;;;;;;;4.70;2.25;;;;;;;16.00;60.95;101296.72;10538711;28;20391;-48
2023/12/20 00:36:24;;;;;;;7.50;3.20;;;;;;;16.00;61.77;101308.22;10537983;28;20024;-50
2023/12/20 00:41:25;;;;;;;5.93;3.60;;;;;;;15.96;61.54;101292.94;10535425;28;20283;-51
2023/12/20 00:46:26;;;;;;;6.30;2.63;;;;;;;15.97;61.90;101310.59;10532508;28;20761;-49
2023/12/20 00:51:26;;;;;;;6.70;2.43;;;;;;;15.96;61.05;101301.78;10537551;28;20027;-48
2023/12/20 00:56:26;;;;;;;6.80;2.33;;;;;;;15.94;61.02;101303.09;10537099;28;20274;-50
2023/12/20 01:01:27;;;;;;;4.30;1.83;;;;;;;15.93;62.38;101304.19;10537379;28;20513;-49
2023/12/20 01:06:27;;;;;;;5.03;2.22;;;;;;;15.94;62.26;101300.44;10536919;28;20290;-49
2023/12/20 01:11:27;;;;;;;7.47;2.63;;;;;;;15.90;61.57;101292.13;10537094;28;20024;-48
2023/12/20 01:16:28;;;;;;;3.07;1.43;;;;;;;15.88;62.32;101286.25;10536329;28;20687;-47
2023/12/20 01:21:28;;;;;;;5.50;2.33;;;;;;;15.90;61.83;101291.34;10536622;28;20277;-49
2023/12/20 01:26:28;;;;;;;4.63;2.30;;;;;;;15.87;61.91;101284.66;10536140;28;20364;-50
2023/12/20 01:31:29;;;;;;;3.77;2.10;;;;;;;15.87;60.85;101291.88;10536171;28;21043;-48
2023/12/20 01:36:29;;;;;;;8.60;2.33;;;;;;;15.85;60.87;101305.47;10535678;28;20274;-47
2023/12/20 01:41:29;;;;;;;4.97;1.87;;;;;;;15.84;61.77;101295.03;10535954;28;20315;-48
2023/12/20 01:46:30;;;;;;;5.80;2.53;;;;;;;15.82;61.94;101291.84;10506394;28;20938;-49
2023/12/20 01:51:30;;;;;;;4.88;1.88;;;;;;;15.81;62.07;101314.28;10532554;28;20290;-50
2023/12/20 01:56:31;;;;;;;4.15;2.05;;;;;;;15.82;61.40;101308.69;10535204;28;20032;-48
2023/12/20 02:01:32;;;;;;;8.52;2.35;;;;;;;15.78;61.64;101307.59;10534927;28;20081;-50
2023/12/20 02:06:33;;;;;;;5.55;2.00;;;;;;;15.77;61.40;101316.69;10524064;28;20048;-50
2023/12/20 02:11:35;;;;;;;4.95;1.95;;;;;;;15.78;61.70;101318.31;10492568;28;20033;-52
2023/12/20 02:16:35;;;;;;;4.72;2.05;;;;;;;15.75;60.88;101321.50;10492159;28;20035;-48
2023/12/20 02:21:36;;;;;;;5.15;2.33;;;;;;;15.75;60.40;101310.81;10492486;28;20029;-47
2023/12/20 02:26:36;;;;;;;5.93;1.83;;;;;;;15.72;61.61;101298.75;10491820;28;20112;-49
2023/12/20 02:31:36;;;;;;;4.77;1.80;;;;;;;15.72;61.56;101301.41;10492149;28;20356;-49
2023/12/20 02:36:36;;;;;;;8.83;1.80;;;;;;;15.70;61.22;101282.16;10491693;28;20278;-49
2023/12/20 02:41:37;;;;;;;4.00;1.47;;;;;;;15.69;61.55;101283.25;10492061;28;20274;-49
2023/12/20 02:46:37;;;;;;;4.07;1.83;;;;;;;15.69;61.11;101285.91;10479938;28;20271;-47
2023/12/20 02:51:40;;;;;;;4.30;1.37;;;;;;;15.68;61.20;101286.97;10489953;28;20290;-51
2023/12/20 02:56:40;;;;;;;7.95;2.75;;;;;;;15.66;61.34;101282.97;10491067;28;20266;-47
2023/12/20 03:01:45;;;;;;;4.03;1.87;;;;;;;15.66;60.61;101278.44;10494045;28;20021;-50
2023/12/20 03:06:46;;;;;;;6.25;1.80;;;;;;;15.66;61.27;101264.25;10511675;28;20770;-51
2023/12/20 03:11:46;;;;;;;4.00;1.67;;;;;;;15.65;60.55;101258.09;10541377;28;20028;-51
2023/12/20 03:16:49;;;;;;;3.23;1.30;;;;;;;15.62;61.49;101252.47;10541632;28;20070;-48
2023/12/20 03:21:49;;;;;;;3.05;1.42;;;;;;;15.63;60.86;101254.91;10541270;28;20278;-50
2023/12/20 03:26:49;;;;;;;5.05;2.42;;;;;;;15.62;60.64;101255.13;10541008;28;20375;-51
2023/12/20 03:31:50;;;;;;;4.80;2.17;;;;;;;15.59;61.58;101256.44;10540957;28;20040;-50
2023/12/20 03:36:50;;;;;;;5.23;2.00;;;;;;;15.61;61.66;101251.66;10540689;28;20285;-49
2023/12/20 03:41:50;;;;;;;7.23;2.87;;;;;;;15.72;61.10;101247.94;10534319;28;20278;-48
2023/12/20 03:46:51;;;;;;;4.47;1.57;;;;;;;15.89;59.88;101241.59;10539015;28;20284;-49
2023/12/20 03:51:52;;;;;;;3.63;1.40;;;;;;;16.26;59.67;101236.03;10522196;28;20286;-50
2023/12/20 03:56:52;;;;;;;3.22;1.90;;;;;;;16.56;58.13;101244.03;10539472;28;20028;-47
2023/12/20 04:01:52;;;;;;;2.60;1.43;;;;;;;16.72;57.69;101254.78;10540026;28;20039;-50
2023/12/20 04:06:53;;;;;;;3.93;1.60;;;;;;;16.91;57.60;101253.13;10539320;28;20290;-51
2023/12/20 04:11:53;;;;;;;5.75;1.63;;;;;;;17.06;57.19;101244.28;10520602;28;20633;-48
2023/12/20 04:16:53;;;;;;;3.17;1.00;;;;;;;17.18;56.81;101247.47;10520606;28;20035;-47
2023/12/20 04:21:54;;;;;;;4.47;1.40;;;;;;;17.25;55.97;101238.03;10539052;28;20112;-49
2023/12/20 04:26:54;;;;;;;2.80;1.30;;;;;;;17.38;56.73;101242.00;10538447;28;20281;-48
2023/12/20 04:31:55;;;;;;;4.47;1.63;;;;;;;17.45;56.70;101247.88;10538318;28;20305;-48
2023/12/20 04:36:55;;;;;;;3.80;1.98;;;;;;;17.58;56.61;101248.38;10526171;28;20301;-50
2023/12/20 04:41:56;;;;;;;4.93;2.13;;;;;;;17.77;56.72;101242.16;10514951;28;20039;-47
2023/12/20 04:46:56;;;;;;;3.35;1.70;;;;;;;17.77;57.23;101247.50;10515015;28;20024;-49
2023/12/20 04:51:57;;;;;;;7.03;2.37;;;;;;;17.86;55.47;101249.59;10512806;28;20028;-48
2023/12/20 04:56:57;;;;;;;6.28;2.25;;;;;;;17.88;56.31;101253.63;10511657;28;20301;-48
2023/12/20 05:01:58;;;;;;;6.23;2.63;;;;;;;17.99;56.25;101238.22;10509079;28;20017;-47
2023/12/20 05:06:58;;;;;;;8.18;2.45;;;;;;;18.09;56.07;101224.75;10522719;28;20305;-51
2023/12/20 05:11:59;;;;;;;4.95;2.50;;;;;;;18.13;56.83;101235.75;10536815;28;20038;-49
2023/12/20 05:16:59;;;;;;;4.55;2.65;;;;;;;18.11;56.59;101223.41;10536626;28;20399;-47
2023/12/20 05:21:59;;;;;;;4.60;2.20;;;;;;;18.16;56.83;101221.75;10522938;28;20028;-47
2023/12/20 05:27:00;;;;;;;5.60;1.80;;;;;;;18.15;56.29;101222.84;10535326;28;20281;-47
2023/12/20 05:32:00;;;;;;;4.83;2.37;;;;;;;18.09;55.95;101224.75;10536273;28;20277;-48
2023/12/20 05:37:01;;;;;;;6.47;1.60;;;;;;;18.10;56.11;101232.53;10535684;28;20309;-50
2023/12/20 05:42:02;;;;;;;4.85;1.95;;;;;;;18.05;56.65;101221.03;10527888;28;20275;-48
2023/12/20 05:47:02;;;;;;;4.03;1.92;;;;;;;18.01;56.42;101220.00;10534065;28;20027;-49
2023/12/20 05:52:03;;;;;;;3.33;1.63;;;;;;;18.01;56.02;101236.91;10535479;28;20028;-48
2023/12/20 05:57:03;;;;;;;6.88;2.17;;;;;;;17.99;55.42;101228.31;10535331;28;20035;-47
2023/12/20 06:02:04;;;;;;;4.55;1.77;;;;;;;18.01;56.10;101238.78;10528576;28;20277;-48
2023/12/20 06:07:05;;;;;;;5.53;2.30;;;;;;;18.02;55.84;101243.06;10530783;28;20059;-49
2023/12/20 06:12:05;;;;;;;3.58;1.65;;;;;;;17.96;55.55;101247.66;10519821;28;20031;-48
2023/12/20 06:17:05;;;;;;;5.03;1.85;;;;;;;17.99;56.39;101232.88;10529407;28;20108;-50
2023/12/20 06:22:06;;;;;;;7.43;2.87;;;;;;;18.05;56.32;101232.56;10534304;28;20023;-48
2023/12/20 06:27:07;;;;;;;11.48;2.50;;;;;;;18.01;57.42;101236.91;10534221;28;20293;-47
2023/12/20 06:32:07;;;;;;;12.60;2.70;;;;;;;18.01;57.24;101225.38;10534091;28;20028;-51
2023/12/20 06:37:08;;;;;;;8.30;2.57;;;;;;;18.01;58.02;101234.22;10533372;28;20024;-48
2023/12/20 06:42:08;;;;;;;8.13;2.60;;;;;;;17.94;58.92;101233.72;10525823;28;20275;-51
2023/12/20 06:47:08;;;;;;;6.80;2.23;;;;;;;17.85;58.83;101223.84;10532202;28;20031;-49
2023/12/20 06:52:09;;;;;;;12.13;3.73;;;;;;;17.81;58.50;101221.72;10533209;28;20301;-48
2023/12/20 06:57:09;;;;;;;9.43;2.75;;;;;;;17.80;58.13;101219.31;10533206;28;20280;-47
2023/12/20 07:02:09;;;;;;;9.17;2.13;;;;;;;17.76;58.29;101215.59;10533644;28;20027;-51
2023/12/20 07:07:10;;;;;;;12.65;3.53;;;;;;;17.65;57.85;101212.16;10532292;28;20352;-52
2023/12/20 07:12:10;;;;;;;9.02;3.30;;;;;;;17.73;57.87;101210.78;10532546;28;20036;-52
2023/12/20 07:17:13;;;;;;;17.13;3.53;;;;;;;17.62;57.96;101206.50;10518410;28;20055;-53
2023/12/20 07:22:13;;;;;;;11.13;3.13;;;;;;;17.62;57.75;101204.63;10518020;28;20341;-51
2023/12/20 07:27:14;;;;;;;13.33;2.80;;;;;;;17.62;58.22;101209.19;10530429;28;20406;-52
2023/12/20 07:32:14;;;;;;;9.20;2.63;;;;;;;17.70;58.27;101208.66;10529613;28;20278;-52
2023/12/20 07:37:14;;;;;;;12.87;3.03;;;;;;;17.66;58.11;101211.06;10532148;28;20059;-50
2023/12/20 07:42:14;;;;;;;9.03;2.13;;;;;;;17.71;57.42;101202.22;10528345;28;20277;-52
2023/12/20 07:47:21;;;;;;;6.67;2.57;;;;;;;17.68;58.04;101198.16;10530878;28;20379;-53
2023/12/20 07:52:24;;;;;;;11.45;2.45;;;;;;;17.66;58.30;101203.00;10530153;28;20684;-51
2023/12/20 07:57:24;;;;;;;12.38;2.13;;;;;;;17.62;57.11;101211.88;10539452;28;20027;-53
2023/12/20 08:02:24;;;;;;;5.90;1.97;;;;;;;17.63;56.80;101208.91;10539410;28;20030;-52
2023/12/20 08:07:25;;;;;;;9.17;2.50;;;;;;;17.62;57.54;101214.56;10539174;28;20301;-53
2023/12/20 08:12:27;;;;;;;7.22;2.78;;;;;;;17.65;56.88;101227.44;10519243;28;21011;-54
2023/12/20 08:17:27;;;;;;;6.38;2.20;;;;;;;17.64;58.22;101231.16;10525589;28;20020;-52
2023/12/20 08:22:28;;;;;;;7.27;2.37;;;;;;;17.60;57.92;101220.19;10529618;28;20532;-52
2023/12/20 08:27:28;;;;;;;9.43;2.80;;;;;;;17.57;58.07;101214.59;10521201;28;20281;-50
2023/12/20 08:32:28;;;;;;;7.28;2.28;;;;;;;17.62;58.20;101218.03;10525674;28;20282;-53
2023/12/20 08:37:29;;;;;;;7.85;2.03;;;;;;;17.52;58.28;101208.19;10526180;28;20040;-51
2023/12/20 08:42:31;;;;;;;6.95;2.38;;;;;;;17.47;58.99;101208.19;10489621;28;20410;-52
2023/12/20 08:47:31;;;;;;;7.13;2.42;;;;;;;17.40;60.10;101213.03;10500529;28;20241;-50
2023/12/20 08:52:32;;;;;;;6.13;2.40;;;;;;;17.37;58.25;101208.25;10503559;28;20131;-50
2023/12/20 08:57:33;;;;;;;10.88;3.00;;;;;;;17.42;58.72;101205.56;10491065;28;20286;-51
2023/12/20 09:02:35;;;;;;;5.85;2.47;;;;;;;17.44;59.80;101199.91;10513936;28;20030;-53
2023/12/20 09:07:36;;;;;;;7.20;1.80;;;;;;;17.46;58.67;101203.13;10521292;28;20040;-50
2023/12/20 09:12:39;;;;;;;4.15;2.10;;;;;;;17.42;59.54;101192.16;10517739;28;20032;-53
2023/12/20 09:17:41;;;;;;;9.27;1.95;;;;;;;17.44;58.75;101219.47;10499927;28;20479;-53
2023/12/20 09:22:41;;;;;;;7.68;2.28;;;;;;;17.47;58.52;101204.72;10499329;28;20693;-52
2023/12/20 09:27:42;;;;;;;7.10;2.75;;;;;;;17.48;58.52;101192.91;10536093;28;20028;-52
2023/12/20 09:32:42;;;;;;;8.77;2.17;;;;;;;17.40;59.25;101202.31;10531030;28;20039;-53
2023/12/20 09:37:44;;;;;;;6.93;2.30;;;;;;;17.44;60.20;101194.56;10535504;28;20282;-52
2023/12/20 09:42:56;;;;;;;7.65;3.30;;;;;;;17.41;60.51;101195.13;10535273;28;20273;-51
2023/12/20 09:47:57;;;;;;;4.93;1.90;;;;;;;17.46;60.00;101187.84;10533248;28;20031;-51
2023/12/20 09:52:59;;;;;;;6.75;2.35;;;;;;;17.54;59.68;101199.88;10531978;28;20027;-52
2023/12/20 09:58:00;;;;;;;7.72;2.05;;;;;;;17.59;59.21;101201.72;10534418;28;20506;-49
2023/12/20 10:03:01;;;;;;;14.23;2.60;;;;;;;17.52;59.75;101199.31;10534953;28;20110;-54
2023/12/20 10:08:02;;;;;;;13.95;3.38;;;;;;;17.57;59.82;101203.88;10516632;28;20415;-52
2023/12/20 10:13:05;;;;;;;12.30;3.47;;;;;;;17.55;58.97;101212.19;10532811;28;20035;-53
2023/12/20 10:18:06;;;;;;;9.50;2.55;;;;;;;17.50;59.35;101221.03;10534330;28;20027;-53
2023/12/20 10:23:06;;;;;;;8.30;2.67;;;;;;;17.46;59.96;101230.72;10533771;28;20022;-51
2023/12/20 10:28:11;;;;;;;13.43;2.85;;;;;;;17.52;59.64;101221.59;10533403;28;20016;-53
2023/12/20 10:33:11;;;;;;;13.05;3.05;;;;;;;17.56;59.62;101215.69;10532678;28;20024;-52
2023/12/20 10:38:13;;;;;;;9.77;2.50;;;;;;;17.53;60.03;101200.94;10533953;28;20467;-52
2023/12/20 10:43:14;;;;;;;10.98;2.10;;;;;;;17.51;58.82;101195.84;10525509;28;20270;-54
2023/12/20 10:48:15;;;;;;;13.30;2.65;;;;;;;17.56;58.75;101191.53;10533777;28;20379;-52
2023/12/20 10:53:16;;;;;;;8.90;2.63;;;;;;;17.55;58.80;101190.75;10514932;28;20028;-51
2023/12/20 10:58:18;;;;;;;19.13;4.68;;;;;;;17.52;58.81;101194.78;10533547;28;20543;-54
2023/12/20 11:03:18;;;;;;;20.25;4.30;;;;;;;17.53;59.68;101185.66;10532919;28;20032;-54
2023/12/20 11:08:29;;;;;;;10.80;2.42;;;;;;;17.57;59.44;101179.75;10532177;28;20495;-53
2023/12/20 11:13:36;;;;;;;16.35;3.45;;;;;;;17.57;58.75;101174.38;10528945;28;20020;-54
2023/12/20 11:18:37;;;;;;;11.10;3.90;;;;;;;17.54;58.30;101165.81;10532544;28;20113;-53
2023/12/20 11:23:37;;;;;;;12.17;2.53;;;;;;;17.50;58.84;101159.38;10536455;28;20490;-53
2023/12/20 11:28:37;;;;;;;9.07;3.27;;;;;;;17.56;58.78;101172.78;10541100;28;20350;-52
2023/12/20 11:33:38;;;;;;;15.47;3.23;;;;;;;17.53;58.44;101163.41;10540803;28;20285;-54
2023/12/20 11:38:39;;;;;;;20.42;3.40;;;;;;;17.44;58.83;101151.66;10540870;28;20277;-55
2023/12/20 11:43:39;;;;;;;20.60;4.00;;;;;;;17.59;59.81;101142.72;10522041;28;20032;-55
2023/12/20 11:48:40;;;;;;;13.90;4.30;;;;;;;17.48;59.81;101147.34;10540554;28;20281;-54
2023/12/20 11:53:42;;;;;;;25.50;3.70;;;;;;;17.53;59.76;101141.97;10539851;28;20101;-54
2023/12/20 11:58:42;;;;;;;15.70;3.90;;;;;;;17.50;59.09;101137.13;10540254;28;20042;-54
2023/12/20 12:03:43;;;;;;;19.13;3.03;;;;;;;17.53;59.87;101125.88;10539593;28;20027;-53
2023/12/20 12:08:43;;;;;;;11.80;2.73;;;;;;;17.51;59.23;101119.97;10539586;28;20609;-53
2023/12/20 12:13:43;;;;;;;17.55;3.60;;;;;;;17.56;59.15;101127.19;10538990;28;20292;-54
2023/12/20 12:18:44;;;;;;;12.13;3.00;;;;;;;17.46;59.97;101136.91;10539618;28;20020;-51
2023/12/20 12:23:45;;;;;;;15.00;3.80;;;;;;;17.45;59.88;101116.53;10538120;28;20306;-48
2023/12/20 12:28:45;;;;;;;13.70;2.83;;;;;;;17.50;58.96;101121.03;10538433;28;20024;-52
2023/12/20 12:33:46;;;;;;;20.00;4.20;;;;;;;17.51;58.80;101115.41;10537888;28;20301;-51
2023/12/20 12:38:46;;;;;;;15.68;2.70;;;;;;;17.50;60.16;101110.31;10538436;28;20046;-51
2023/12/20 12:43:46;;;;;;;15.37;3.20;;;;;;;17.42;60.30;101092.16;10529003;28;20073;-51
2023/12/20 12:48:47;;;;;;;22.17;3.23;;;;;;;17.31;60.64;101094.09;10512701;28;20289;-52
2023/12/20 12:53:47;;;;;;;11.52;3.33;;;;;;;17.28;60.92;101088.47;10537012;28;20342;-53
2023/12/20 12:58:47;;;;;;;11.40;3.53;;;;;;;17.25;61.00;101087.97;10537931;28;20027;-50
2023/12/20 13:03:48;;;;;;;19.83;2.80;;;;;;;17.33;59.13;101078.53;10537135;28;20675;-49
2023/12/20 13:08:49;;;;;;;12.63;3.00;;;;;;;17.35;59.29;101065.66;10537382;28;20391;-50
2023/12/20 13:13:49;;;;;;;11.00;2.95;;;;;;;17.38;59.77;101056.25;10536628;28;20294;-52
2023/12/20 13:18:49;;;;;;;9.60;3.13;;;;;;;17.34;59.48;101049.88;10537130;28;20487;-51
2023/12/20 13:23:50;;;;;;;12.68;3.03;;;;;;;17.44;60.75;101031.03;10536462;28;20327;-54
2023/12/20 13:28:50;;;;;;;14.77;3.28;;;;;;;17.48;59.09;101035.53;10536425;28;20088;-54
2023/12/20 13:33:52;;;;;;;14.23;4.13;;;;;;;17.38;59.93;101019.53;10535974;28;20352;-54
2023/12/20 13:38:53;;;;;;;15.82;3.33;;;;;;;17.37;60.31;101031.34;10536267;28;20871;-52
2023/12/20 13:43:54;;;;;;;13.18;3.10;;;;;;;17.37;60.98;101025.97;10527934;28;20081;-54
2023/12/20 13:48:54;;;;;;;14.00;3.58;;;;;;;17.26;61.06;101008.38;10534639;28;20463;-54
2023/12/20 13:53:54;;;;;;;13.48;4.75;;;;;;;17.29;60.99;101005.16;10535039;28;20024;-53
2023/12/20 13:58:55;;;;;;;12.97;2.93;;;;;;;17.31;60.21;101011.03;10535249;28;20024;-54
2023/12/20 14:03:55;;;;;;;12.38;3.65;;;;;;;17.23;60.03;101008.94;10534247;28;20628;-54
2023/12/20 14:08:55;;;;;;;17.45;4.63;;;;;;;17.28;61.46;101016.13;10534205;28;20044;-53
2023/12/20 14:13:57;;;;;;;13.43;3.77;;;;;;;17.28;60.52;101011.56;10534358;28;20031;-55
2023/12/20 14:18:58;;;;;;;13.68;2.97;;;;;;;17.30;60.07;101012.09;10534830;28;20305;-54
2023/12/20 14:23:58;;;;;;;22.02;3.85;;;;;;;17.25;61.53;101009.44;10533845;28;20451;-53
2023/12/20 14:28:59;;;;;;;21.02;3.85;;;;;;;17.29;60.05;101025.78;10534551;28;20427;-52
2023/12/20 14:34:01;;;;;;;12.60;3.90;;;;;;;17.29;61.51;101029.28;10533209;28;20048;-52
2023/12/20 14:39:04;;;;;;;10.98;3.15;;;;;;;17.29;61.33;101020.44;10526121;28;20285;-51
2023/12/20 14:44:04;;;;;;;16.65;4.40;;;;;;;17.35;60.25;101025.47;10532720;28;20344;-53
2023/12/20 14:49:05;;;;;;;11.57;3.67;;;;;;;17.34;60.72;101015.81;10533676;28;20020;-55
2023/12/20 14:54:10;;;;;;;12.93;3.35;;;;;;;17.32;62.12;101015.31;10528967;28;20290;-53
2023/12/20 14:59:10;;;;;;;15.77;3.38;;;;;;;17.27;60.82;101006.47;10532232;28;20030;-54
2023/12/20 15:04:11;;;;;;;14.02;3.30;;;;;;;17.30;60.13;101003.28;10531895;28;20511;-54
2023/12/20 15:09:11;;;;;;;16.97;4.77;;;;;;;17.33;60.73;101013.41;10509750;28;20055;-51
2023/12/20 15:14:14;;;;;;;22.52;4.57;;;;;;;17.35;60.98;101012.06;10524276;28;20957;-53
2023/12/20 15:19:15;;;;;;;20.05;4.50;;;;;;;17.30;60.27;101004.06;10510210;28;20024;-54
2023/12/20 15:24:16;;;;;;;16.92;4.00;;;;;;;17.33;60.45;100994.66;10525353;28;20674;-54
2023/12/20 15:29:17;;;;;;;25.90;4.50;;;;;;;17.33;60.51;101003.50;10514268;28;20533;-54
2023/12/20 15:34:17;;;;;;;12.18;4.05;;;;;;;17.31;59.42;100992.25;10520957;28;20032;-53
2023/12/20 15:39:17;;;;;;;10.13;3.33;;;;;;;17.30;60.27;100990.66;10513580;28;20031;-53
2023/12/20 15:44:18;;;;;;;14.77;3.13;;;;;;;17.30;59.28;100981.81;10523008;28;20104;-53
2023/12/20 15:49:18;;;;;;;14.57;3.97;;;;;;;17.37;60.33;100977.72;10518761;28;20274;-54
2023/12/20 15:54:19;;;;;;;11.02;2.80;;;;;;;17.35;59.11;100974.53;10506324;28;20024;-52
2023/12/20 15:59:19;;;;;;;10.70;3.17;;;;;;;17.34;60.00;100962.22;10526709;28;20028;-55
2023/12/20 16:04:20;;;;;;;9.65;2.65;;;;;;;17.34;60.21;100948.00;10525522;28;20277;-52
2023/12/20 16:09:20;;;;;;;13.50;2.88;;;;;;;17.35;58.99;100971.84;10507737;28;20063;-52
2023/12/20 16:14:20;;;;;;;9.53;2.83;;;;;;;17.36;59.00;100959.25;10512565;28;20098;-52
2023/12/20 16:19:21;;;;;;;6.53;2.78;;;;;;;17.35;58.53;100931.66;10512728;28;20288;-54
2023/12/20 16:24:21;;;;;;;11.68;2.75;;;;;;;17.36;59.61;100933.25;10512905;28;20029;-53
2023/12/20 16:29:21;;;;;;;9.73;1.98;;;;;;;17.33;58.57;100923.09;10495023;28;20051;-53
2023/12/20 16:34:22;;;;;;;7.22;2.30;;;;;;;17.37;60.27;100910.72;10513425;28;20031;-51
2023/12/20 16:39:23;;;;;;;7.15;2.47;;;;;;;17.41;58.53;100895.69;10516628;28;20058;-53
2023/12/20 16:44:23;;;;;;;6.70;2.40;;;;;;;17.40;58.59;100893.25;10526847;28;20027;-53
2023/12/20 16:49:23;;;;;;;12.27;2.07;;;;;;;17.41;59.27;100890.31;10537744;28;20038;-54
2023/12/20 16:54:24;;;;;;;7.50;2.60;;;;;;;17.44;58.55;100880.91;10512947;28;20836;-53
2023/12/20 16:59:24;;;;;;;5.83;1.80;;;;;;;17.37;59.07;100886.59;10509692;28;20016;-54
2023/12/20 17:04:24;;;;;;;4.70;2.07;;;;;;;17.40;58.90;100866.47;10512253;28;20360;-54
2023/12/20 17:09:26;;;;;;;9.00;2.00;;;;;;;17.37;59.48;100849.06;10508255;28;20376;-54
2023/12/20 17:14:26;;;;;;;8.13;2.03;;;;;;;17.41;59.75;100846.66;10507715;28;20286;-53
2023/12/20 17:19:29;;;;;;;7.17;1.80;;;;;;;17.53;60.67;100844.38;10508619;28;20029;-51
2023/12/20 17:24:29;;;;;;;5.38;1.70;;;;;;;17.60;59.49;100830.59;10508893;28;20266;-52
2023/12/20 17:29:30;;;;;;;5.40;1.90;;;;;;;17.66;59.15;100819.53;10512337;28;20027;-52
2023/12/20 17:34:30;;;;;;;7.87;2.83;;;;;;;17.66;59.66;100837.53;10506633;28;20028;-54
2023/12/20 17:39:30;;;;;;;4.25;2.05;;;;;;;17.60;59.97;100822.56;10506789;28;20634;-54
2023/12/20 17:44:31;;;;;;;3.67;2.05;;;;;;;17.57;60.11;100813.22;10509413;28;20262;-56
2023/12/20 17:49:32;;;;;;;5.07;1.90;;;;;;;17.61;59.21;100808.88;10491565;28;20040;-52
2023/12/20 17:54:32;;;;;;;5.28;1.60;;;;;;;17.59;59.96;100815.59;10510051;28;20031;-54
2023/12/20 17:59:32;;;;;;;9.93;2.10;;;;;;;17.54;58.82;100792.34;10508993;28;20020;-54
2023/12/20 18:04:33;;;;;;;4.22;1.60;;;;;;;17.57;59.18;100790.97;10518472;28;20282;-52
2023/12/20 18:09:33;;;;;;;10.30;2.88;;;;;;;17.56;60.17;100784.81;10528380;28;20135;-52
2023/12/20 18:14:33;;;;;;;7.93;1.88;;;;;;;17.57;59.06;100778.34;10510624;28;20089;-52
2023/12/20 18:19:33;;;;;;;5.07;1.90;;;;;;;17.54;58.93;100777.06;10513255;28;20024;-53
2023/12/20 18:24:34;;;;;;;6.55;1.60;;;;;;;17.49;60.20;100770.94;10505658;28;20279;-52
2023/12/20 18:29:34;;;;;;;4.30;1.77;;;;;;;17.49;59.01;100770.94;10508186;28;20032;-54
2023/12/20 18:34:35;;;;;;;4.40;1.90;;;;;;;17.50;58.78;100765.28;10507127;28;20757;-52
2023/12/20 18:39:39;;;;;;;6.22;1.60;;;;;;;17.52;58.79;100757.78;10507393;28;20273;-52
2023/12/20 18:44:39;;;;;;;6.10;1.77;;;;;;;17.50;58.22;100764.50;10508550;28;20095;-53
2023/12/20 18:49:40;;;;;;;5.38;1.45;;;;;;;17.44;59.80;100744.22;10505143;28;20635;-54
2023/12/20 18:54:40;;;;;;;4.47;1.45;;;;;;;17.49;58.64;100720.00;10508362;28;20180;-53
2023/12/20 18:59:40;;;;;;;12.20;2.27;;;;;;;17.44;59.25;100710.16;10506227;28;20041;-52
2023/12/20 19:04:41;;;;;;;5.88;1.63;;;;;;;17.44;58.93;100720.09;10516910;28;20277;-53
2023/12/20 19:09:41;;;;;;;5.60;1.67;;;;;;;17.46;59.62;100723.28;10508016;28;20048;-54
2023/12/20 19:14:43;;;;;;;4.23;1.50;;;;;;;17.46;59.54;100707.97;10513384;28;20502;-55
2023/12/20 19:19:43;;;;;;;4.00;1.45;;;;;;;17.44;58.37;100704.78;10506678;28;20283;-54
2023/12/20 19:24:44;;;;;;;6.83;2.17;;;;;;;17.44;58.92;100688.72;10506934;28;20025;-54
2023/12/20 19:29:44;;;;;;;4.18;1.30;;;;;;;17.46;59.91;100686.53;10507382;28;20278;-52
2023/12/20 19:34:44;;;;;;;3.53;2.03;;;;;;;17.45;58.58;100674.22;10507082;28;20105;-54
2023/12/20 19:39:45;;;;;;;3.27;1.40;;;;;;;17.45;59.45;100665.38;10509490;28;20883;-55
2023/12/20 19:44:45;;;;;;;3.13;1.40;;;;;;;17.49;58.65;100658.34;10511830;28;20285;-52
2023/12/20 19:49:45;;;;;;;4.83;1.87;;;;;;;17.47;59.28;100668.56;10509831;28;20282;-55
2023/12/20 19:54:46;;;;;;;3.80;1.40;;;;;;;17.45;57.99;100655.47;10531202;28;20282;-55
2023/12/20 19:59:46;;;;;;;5.57;1.40;;;;;;;17.46;58.89;100662.41;10519793;28;20440;-55
2023/12/20 20:04:46;;;;;;;7.00;1.60;;;;;;;17.43;59.39;100643.44;10515808;28;20270;-55
2023/12/20 20:09:47;;;;;;;3.57;1.40;;;;;;;17.40;58.61;100636.75;10538826;28;20047;-55
2023/12/20 20:14:47;;;;;;;5.83;2.03;;;;;;;17.36;59.31;100629.59;10535081;28;20286;-53
2023/12/20 20:19:47;;;;;;;4.70;2.40;;;;;;;17.29;59.54;100643.34;10496893;28;20282;-54
2023/12/20 20:24:48;;;;;;;3.77;1.03;;;;;;;17.25;59.53;100648.47;10511095;28;20024;-54
2023/12/20 20:29:48;;;;;;;2.33;0.90;;;;;;;17.23;60.16;100644.50;10512936;28;20964;-53
2023/12/20 20:34:49;;;;;;;3.65;1.30;;;;;;;17.15;59.32;100643.25;10508394;28;20285;-54
2023/12/20 20:39:49;;;;;;;5.05;1.50;;;;;;;17.12;60.33;100649.19;10512624;28;20448;-54
2023/12/20 20:44:50;;;;;;;5.25;2.03;;;;;;;17.09;60.14;100655.13;10537952;28;20023;-54
2023/12/20 20:49:50;;;;;;;4.67;1.27;;;;;;;17.04;59.84;100638.28;10537908;28;20050;-55
2023/12/20 20:54:50;;;;;;;3.10;1.30;;;;;;;17.01;59.30;100618.25;10524683;28;20285;-53
2023/12/20 20:59:51;;;;;;;3.20;1.37;;;;;;;16.97;60.22;100619.13;10537207;28;20032;-55
2023/12/20 21:04:51;;;;;;;2.67;1.30;;;;;;;16.94;60.25;100618.63;10538169;28;20278;-54
2023/12/20 21:09:51;;;;;;;2.53;1.10;;;;;;;16.89;60.07;100610.63;10536384;28;20298;-54
2023/12/20 21:14:52;;;;;;;4.00;1.45;;;;;;;16.86;60.00;100605.06;10518946;28;20036;-54
2023/12/20 21:19:52;;;;;;;2.85;1.17;;;;;;;16.83;59.85;100587.69;10536625;28;20024;-53
2023/12/20 21:24:52;;;;;;;3.13;1.30;;;;;;;16.84;60.40;100586.59;10537161;28;20028;-54
2023/12/20 21:29:53;;;;;;;2.50;0.80;;;;;;;16.80;59.84;100584.75;10536402;28;20266;-54
2023/12/20 21:34:53;;;;;;;2.72;1.30;;;;;;;16.79;59.91;100583.16;10536582;28;20274;-54
2023/12/20 21:39:54;;;;;;;3.30;1.07;;;;;;;16.74;61.25;100570.66;10535973;28;20099;-53
2023/12/20 21:44:54;;;;;;;2.67;1.50;;;;;;;16.71;61.25;100559.72;10529118;28;20326;-55
2023/12/20 21:49:54;;;;;;;3.57;1.50;;;;;;;16.67;60.87;100564.81;10535430;28;20274;-54
2023/12/20 21:54:54;;;;;;;3.00;1.20;;;;;;;16.65;61.64;100553.59;10535615;28;20729;-53
2023/12/20 21:59:55;;;;;;;6.77;1.37;;;;;;;16.63;60.34;100553.88;10534955;28;20273;-53
2023/12/20 22:04:55;;;;;;;2.83;1.30;;;;;;;16.59;59.84;100560.91;10535332;28;20365;-52
2023/12/20 22:09:56;;;;;;;2.97;0.90;;;;;;;16.57;60.53;100559.56;10534315;28;20040;-54
2023/12/20 22:14:56;;;;;;;2.10;0.90;;;;;;;16.56;60.22;100563.31;10534575;28;20286;-54
2023/12/20 22:19:57;;;;;;;2.83;1.20;;;;;;;16.52;61.45;100552.41;10534267;28;20024;-56
2023/12/20 22:24:57;;;;;;;2.78;1.00;;;;;;;16.52;61.42;100541.69;10534566;28;20289;-54
2023/12/20 22:29:57;;;;;;;2.43;0.90;;;;;;;16.50;59.97;100549.22;10533930;28;20031;-54
2023/12/20 22:34:58;;;;;;;3.05;1.00;;;;;;;16.48;60.29;100543.34;10534280;28;20311;-54
2023/12/20 22:39:58;;;;;;;3.40;1.23;;;;;;;16.45;61.12;100535.06;10533792;28;20036;-55
2023/12/20 22:44:58;;;;;;;3.33;1.10;;;;;;;16.45;60.74;100521.69;10515176;28;20418;-52
2023/12/20 22:49:59;;;;;;;2.97;1.23;;;;;;;16.43;60.62;100522.00;10518059;28;20302;-54
2023/12/20 22:54:59;;;;;;;1.67;0.50;;;;;;;16.41;61.60;100518.81;10533442;28;20286;-53